Time;durP1;ratioP1;P1;durP2;ratioP2;P2;SDS_P1;SDS_P2;PMS_P1;PMS_P2;Temp;Humidity;BMP_temperature;BMP_pressure;BME280_temperature;BME280_humidity;BME280_pressure;Samples;Min_cycle;Max_cycle;Signal;HPM_P1;HPM_P2
2022/01/29 00:01:10;;;;;;;15.45;4.32;;;22.20;53.60;;;;;;5032655;28;20108;-71
2022/01/29 00:03:36;;;;;;;15.02;5.10;;;22.30;53.30;;;;;;4994248;28;20026;-72
2022/01/29 00:06:03;;;;;;;15.00;4.75;;;22.30;53.30;;;;;;5027218;28;20359;-72
2022/01/29 00:08:29;;;;;;;12.70;4.43;;;22.30;53.20;;;;;;5028719;28;20029;-72
2022/01/29 00:11:01;;;;;;;13.90;4.35;;;22.30;53.20;;;;;;4994131;28;20037;-71
2022/01/29 00:13:27;;;;;;;11.48;4.60;;;22.30;53.40;;;;;;5032331;28;20025;-72
2022/01/29 00:15:52;;;;;;;10.85;4.10;;;22.30;53.50;;;;;;5032190;28;20044;-72
2022/01/29 00:18:18;;;;;;;13.23;5.20;;;22.30;53.60;;;;;;5030799;28;20068;-71
2022/01/29 00:20:44;;;;;;;13.23;4.35;;;22.30;53.60;;;;;;5031789;28;20052;-71
2022/01/29 00:23:10;;;;;;;14.25;4.50;;;22.30;53.80;;;;;;5032252;28;20017;-72
2022/01/29 00:25:36;;;;;;;11.90;3.97;;;22.30;53.80;;;;;;5013840;28;20070;-72
2022/01/29 00:28:02;;;;;;;12.93;4.40;;;22.40;53.90;;;;;;5030907;28;20084;-72
2022/01/29 00:30:37;;;;;;;13.52;4.35;;;22.40;54.00;;;;;;5031258;28;20100;-71
2022/01/29 00:33:02;;;;;;;12.95;4.40;;;22.40;53.90;;;;;;5030685;28;20478;-71
2022/01/29 00:35:28;;;;;;;11.23;4.30;;;22.30;53.50;;;;;;5024948;28;20087;-71
2022/01/29 00:37:53;;;;;;;10.43;4.20;;;22.40;53.80;;;;;;5030151;28;20095;-72
2022/01/29 00:40:21;;;;;;;11.57;4.25;;;22.40;54.00;;;;;;5029766;28;20044;-70
2022/01/29 00:42:48;;;;;;;12.98;4.20;;;22.40;54.10;;;;;;5031444;28;20026;-70
2022/01/29 00:45:14;;;;;;;10.52;4.32;;;22.40;54.10;;;;;;5013746;28;20079;-71
2022/01/29 00:47:40;;;;;;;10.10;4.10;;;22.40;54.10;;;;;;5032150;28;20048;-71
2022/01/29 00:50:06;;;;;;;10.25;3.70;;;22.40;54.20;;;;;;5030440;28;20068;-71
2022/01/29 00:52:32;;;;;;;9.23;3.90;;;22.40;54.20;;;;;;5030691;28;20076;-70
2022/01/29 00:54:58;;;;;;;18.00;4.05;;;22.40;54.30;;;;;;5031391;28;20025;-72
2022/01/29 00:57:28;;;;;;;10.38;3.70;;;22.40;54.30;;;;;;5030887;28;20045;-72
2022/01/29 00:59:53;;;;;;;;;;;22.40;54.30;;;;;;5032261;28;20057;-72
2022/01/29 01:02:19;;;;;;;10.68;4.20;;;22.40;54.30;;;;;;5031953;28;19909;-72
2022/01/29 01:04:45;;;;;;;10.70;3.83;;;22.40;54.40;;;;;;5031299;28;20087;-72
2022/01/29 01:07:11;;;;;;;11.75;4.03;;;22.40;54.40;;;;;;5031344;28;20074;-72
2022/01/29 01:09:37;;;;;;;12.23;3.80;;;22.40;54.50;;;;;;5029499;28;20186;-72
2022/01/29 01:12:04;;;;;;;11.60;3.85;;;22.40;54.50;;;;;;5030058;28;20061;-72
2022/01/29 01:14:30;;;;;;;11.77;3.72;;;22.40;54.50;;;;;;5032886;28;20025;-72
2022/01/29 01:16:55;;;;;;;12.38;3.92;;;22.40;54.50;;;;;;5031409;28;20139;-72
2022/01/29 01:19:25;;;;;;;10.07;3.90;;;22.30;54.50;;;;;;5029435;28;20025;-72
2022/01/29 01:21:53;;;;;;;10.27;3.47;;;22.30;54.60;;;;;;5032867;28;20053;-72
2022/01/29 01:24:19;;;;;;;12.85;4.13;;;22.30;54.50;;;;;;5029602;28;20033;-72
2022/01/29 01:26:45;;;;;;;11.80;3.85;;;22.30;54.50;;;;;;5029105;28;20030;-72
2022/01/29 01:29:10;;;;;;;10.13;3.80;;;22.30;54.50;;;;;;5030361;28;20022;-72
2022/01/29 01:31:37;;;;;;;8.90;3.65;;;22.40;54.50;;;;;;5030479;28;20041;-72
2022/01/29 01:34:05;;;;;;;12.43;3.58;;;22.40;54.60;;;;;;5030754;28;20039;-72
2022/01/29 01:36:31;;;;;;;10.02;3.72;;;22.30;54.50;;;;;;5041840;28;20182;-72
2022/01/29 01:39:04;;;;;;;7.88;3.45;;;22.30;54.50;;;;;;5034319;28;20065;-73
2022/01/29 01:41:37;;;;;;;6.95;3.25;;;22.40;54.60;;;;;;5032425;28;20105;-72
2022/01/29 01:44:03;;;;;;;10.45;3.60;;;22.40;54.70;;;;;;5051703;28;20028;-72
2022/01/29 01:46:30;;;;;;;11.40;3.55;;;22.40;54.70;;;;;;5017454;28;20036;-72
2022/01/29 01:48:56;;;;;;;9.68;3.67;;;22.40;54.70;;;;;;5032551;28;20088;-71
2022/01/29 01:51:22;;;;;;;13.25;3.55;;;22.40;54.70;;;;;;5032549;28;20113;-72
2022/01/29 01:53:48;;;;;;;8.88;3.30;;;22.40;54.70;;;;;;5029479;28;20025;-72
2022/01/29 01:56:13;;;;;;;8.80;3.20;;;22.40;54.70;;;;;;5038406;23;20106;-67
2022/01/29 01:58:39;;;;;;;12.40;3.60;;;22.40;54.70;;;;;;5027250;28;20036;-69
2022/01/29 02:01:05;;;;;;;7.68;3.38;;;22.40;54.70;;;;;;5031312;28;20037;-68
2022/01/29 02:03:32;;;;;;;8.93;3.20;;;22.40;54.70;;;;;;5014154;28;20513;-68
2022/01/29 02:05:58;;;;;;;12.02;3.47;;;22.40;54.80;;;;;;5013742;28;20351;-68
2022/01/29 02:08:24;;;;;;;10.10;3.22;;;22.40;54.90;;;;;;5013372;28;20345;-68
2022/01/29 02:10:51;;;;;;;16.42;3.58;;;22.40;54.80;;;;;;5030442;28;20029;-68
2022/01/29 02:13:17;;;;;;;12.43;3.53;;;22.40;54.80;;;;;;5013417;28;20143;-68
2022/01/29 02:15:43;;;;;;;10.88;3.63;;;22.30;54.70;;;;;;5014498;28;20064;-68
2022/01/29 02:18:15;;;;;;;11.48;3.47;;;22.30;54.20;;;;;;5032773;28;20112;-68
2022/01/29 02:20:43;;;;;;;10.45;3.63;;;22.30;54.60;;;;;;5014767;28;20083;-68
2022/01/29 02:23:09;;;;;;;12.00;3.50;;;22.20;54.70;;;;;;5015095;28;20036;-68
2022/01/29 02:25:37;;;;;;;13.02;3.67;;;22.20;54.30;;;;;;5014693;28;20026;-68
2022/01/29 02:28:18;;;;;;;9.32;3.38;;;22.20;55.00;;;;;;5032543;28;20029;-68
2022/01/29 02:30:47;;;;;;;10.77;3.22;;;22.20;54.60;;;;;;5032232;28;20029;-68
2022/01/29 02:33:15;;;;;;;11.57;3.33;;;22.20;54.70;;;;;;5032520;28;20553;-68
2022/01/29 02:35:47;;;;;;;10.25;3.00;;;22.20;54.40;;;;;;5032349;28;20056;-68
2022/01/29 02:38:15;;;;;;;9.52;3.45;;;22.20;54.70;;;;;;5014528;28;20029;-68
2022/01/29 02:40:53;;;;;;;9.60;3.15;;;22.20;54.00;;;;;;5032303;28;20021;-68
2022/01/29 02:43:27;;;;;;;10.55;3.20;;;22.20;54.40;;;;;;5032375;28;20084;-68
2022/01/29 02:45:54;;;;;;;13.98;3.70;;;22.20;54.40;;;;;;5032286;28;20478;-68
2022/01/29 02:48:21;;;;;;;10.05;3.10;;;22.20;54.60;;;;;;5014631;28;20048;-68
2022/01/29 02:50:47;;;;;;;8.88;2.88;;;22.10;54.20;;;;;;5014280;28;20036;-68
2022/01/29 02:53:13;;;;;;;9.55;3.20;;;22.10;54.10;;;;;;5031875;28;20025;-68
2022/01/29 02:55:39;;;;;;;8.32;3.35;;;22.10;54.30;;;;;;5031789;28;20033;-68
2022/01/29 02:58:06;;;;;;;9.68;3.20;;;22.10;54.40;;;;;;4998148;28;20029;-68
2022/01/29 03:00:32;;;;;;;10.70;3.70;;;22.10;54.50;;;;;;5031781;28;20061;-68
2022/01/29 03:02:58;;;;;;;9.65;3.10;;;22.10;54.80;;;;;;5032039;28;20417;-68
2022/01/29 03:05:24;;;;;;;8.82;3.10;;;22.10;54.80;;;;;;5014136;28;20041;-68
2022/01/29 03:07:50;;;;;;;11.57;2.97;;;22.10;54.90;;;;;;5014302;28;20391;-68
2022/01/29 03:10:16;;;;;;;7.53;2.88;;;22.10;54.80;;;;;;5031464;28;20029;-68
2022/01/29 03:12:42;;;;;;;10.32;3.42;;;22.20;54.70;;;;;;5014284;28;20029;-68
2022/01/29 03:15:09;;;;;;;10.30;3.08;;;22.20;54.80;;;;;;5014161;28;20036;-68
2022/01/29 03:17:35;;;;;;;10.63;2.97;;;22.10;55.50;;;;;;5031828;28;20111;-68
2022/01/29 03:20:00;;;;;;;9.75;3.00;;;22.10;54.80;;;;;;5013654;28;20061;-68
2022/01/29 03:22:26;;;;;;;9.25;2.95;;;22.20;54.50;;;;;;5014323;28;20037;-67
2022/01/29 03:24:52;;;;;;;12.32;3.22;;;22.10;54.90;;;;;;5031589;28;20446;-67
2022/01/29 03:27:18;;;;;;;8.57;3.08;;;22.10;54.50;;;;;;4997514;28;20433;-68
2022/01/29 03:29:43;;;;;;;10.70;2.97;;;22.10;54.80;;;;;;5031384;28;20022;-68
2022/01/29 03:32:10;;;;;;;11.30;3.15;;;22.10;54.50;;;;;;5031686;28;20029;-68
2022/01/29 03:34:35;;;;;;;12.55;3.10;;;22.10;54.50;;;;;;5031369;28;20108;-68
2022/01/29 03:37:02;;;;;;;9.55;3.10;;;22.10;54.90;;;;;;5031427;28;20104;-68
2022/01/29 03:39:29;;;;;;;7.93;2.90;;;22.10;54.60;;;;;;5013673;28;20034;-68
2022/01/29 03:42:00;;;;;;;9.70;3.13;;;22.10;54.60;;;;;;5014050;28;20037;-68
2022/01/29 03:44:26;;;;;;;7.72;2.88;;;22.10;54.90;;;;;;5013880;28;20470;-68
2022/01/29 03:46:52;;;;;;;11.45;3.15;;;22.10;54.80;;;;;;5033662;28;20125;-68
2022/01/29 03:49:17;;;;;;;9.05;3.00;;;22.00;54.60;;;;;;5035151;28;20390;-68
2022/01/29 03:51:43;;;;;;;9.27;3.10;;;22.00;54.80;;;;;;5035347;28;20036;-68
2022/01/29 03:54:09;;;;;;;9.13;3.00;;;22.10;54.80;;;;;;5001321;28;20026;-68
2022/01/29 03:56:35;;;;;;;11.73;3.28;;;22.00;54.90;;;;;;5035579;28;20087;-68
2022/01/29 03:59:00;;;;;;;8.10;3.00;;;22.00;54.90;;;;;;5035590;28;20037;-68
2022/01/29 04:01:26;;;;;;;9.68;3.35;;;22.00;55.00;;;;;;5016941;28;20498;-68
2022/01/29 04:03:52;;;;;;;8.75;2.80;;;22.00;54.70;;;;;;5001359;28;20021;-68
2022/01/29 04:06:17;;;;;;;13.32;3.00;;;22.00;54.70;;;;;;5035297;28;20505;-68
2022/01/29 04:08:44;;;;;;;8.60;2.85;;;22.00;54.60;;;;;;5017696;28;20394;-68
2022/01/29 04:11:12;;;;;;;9.52;3.15;;;22.00;54.70;;;;;;5034854;28;20030;-68
2022/01/29 04:13:42;;;;;;;7.53;2.93;;;22.00;54.80;;;;;;5017221;28;20033;-68
2022/01/29 04:16:08;;;;;;;7.68;2.72;;;22.00;54.70;;;;;;5035106;28;20648;-68
2022/01/29 04:18:34;;;;;;;8.70;2.85;;;22.00;55.10;;;;;;5017371;28;20038;-68
2022/01/29 04:21:01;;;;;;;6.82;2.42;;;22.00;54.80;;;;;;5016981;28;20032;-68
2022/01/29 04:23:27;;;;;;;5.90;2.50;;;22.00;54.80;;;;;;5034961;28;20029;-68
2022/01/29 04:25:53;;;;;;;7.75;2.67;;;22.00;54.80;;;;;;5034836;28;20075;-68
2022/01/29 04:28:27;;;;;;;8.02;2.80;;;22.00;54.80;;;;;;5016963;28;20025;-68
2022/01/29 04:30:58;;;;;;;9.45;2.60;;;22.00;54.70;;;;;;5034601;28;20044;-68
2022/01/29 04:33:30;;;;;;;8.15;2.67;;;22.00;54.90;;;;;;5034821;28;20026;-67
2022/01/29 04:35:59;;;;;;;7.70;2.85;;;22.00;54.80;;;;;;5034529;28;20063;-68
2022/01/29 04:38:26;;;;;;;6.63;2.58;;;22.00;54.90;;;;;;5034839;28;20095;-68
2022/01/29 04:40:52;;;;;;;7.18;2.80;;;22.00;54.90;;;;;;5016641;28;20037;-68
2022/01/29 04:43:18;;;;;;;8.27;2.83;;;22.00;54.80;;;;;;5034354;28;20021;-68
2022/01/29 04:45:44;;;;;;;9.48;2.65;;;22.00;54.80;;;;;;5034648;28;20028;-68
2022/01/29 04:48:10;;;;;;;6.28;2.35;;;22.00;54.90;;;;;;5016823;28;20021;-68
2022/01/29 04:50:35;;;;;;;8.18;3.05;;;22.00;55.00;;;;;;5034075;28;20021;-68
2022/01/29 04:53:01;;;;;;;7.88;2.38;;;22.00;54.80;;;;;;5016725;28;20494;-68
2022/01/29 04:55:27;;;;;;;7.10;2.55;;;22.00;54.90;;;;;;4999940;28;20512;-68
2022/01/29 04:57:52;;;;;;;8.82;2.90;;;21.90;54.90;;;;;;5034240;28;20025;-68
2022/01/29 05:00:21;;;;;;;9.27;2.72;;;21.90;55.00;;;;;;5033948;28;20077;-68
2022/01/29 05:02:47;;;;;;;10.85;2.92;;;21.90;55.00;;;;;;5034235;28;20482;-67
2022/01/29 05:05:13;;;;;;;9.65;2.53;;;21.90;55.10;;;;;;5016542;28;20021;-68
2022/01/29 05:07:39;;;;;;;7.95;3.17;;;21.90;55.30;;;;;;5013389;28;20032;-67
2022/01/29 05:10:05;;;;;;;8.73;2.65;;;21.90;55.40;;;;;;5032853;28;20030;-68
2022/01/29 05:12:42;;;;;;;8.18;2.35;;;21.90;55.30;;;;;;5034122;28;20128;-68
2022/01/29 05:15:21;;;;;;;6.68;2.40;;;21.90;55.40;;;;;;5033826;28;20033;-68
2022/01/29 05:28:46;;;;;;;6.65;2.72;;;21.90;55.60;;;;;;5016035;28;20402;-67
2022/01/29 05:31:11;;;;;;;7.45;2.65;;;21.90;55.60;;;;;;4998773;28;20029;-68
2022/01/29 05:33:37;;;;;;;7.63;2.70;;;21.90;55.60;;;;;;5033623;28;20083;-68
2022/01/29 05:36:03;;;;;;;5.55;2.45;;;21.90;55.60;;;;;;5015669;28;20036;-68
2022/01/29 05:38:29;;;;;;;8.77;2.83;;;21.90;55.90;;;;;;4998205;28;20029;-67
2022/01/29 05:40:55;;;;;;;7.45;2.53;;;21.90;55.90;;;;;;4996745;28;20045;-67
2022/01/29 05:43:22;;;;;;;7.35;2.33;;;21.90;55.80;;;;;;5031565;28;20056;-68
2022/01/29 05:45:48;;;;;;;7.57;2.45;;;21.90;55.70;;;;;;5015679;28;20025;-68
2022/01/29 05:48:13;;;;;;;7.68;2.80;;;21.90;55.80;;;;;;5033483;28;20029;-68
2022/01/29 05:50:39;;;;;;;7.53;2.60;;;21.90;55.80;;;;;;5032995;28;20029;-68
2022/01/29 05:53:05;;;;;;;7.03;2.33;;;21.90;55.70;;;;;;5033327;28;20025;-68
2022/01/29 05:55:31;;;;;;;7.78;2.40;;;21.90;55.90;;;;;;5015381;28;20474;-67
2022/01/29 05:57:56;;;;;;;8.63;2.88;;;21.90;55.70;;;;;;5015705;28;20045;-67
2022/01/29 06:00:22;;;;;;;6.88;2.75;;;21.90;55.60;;;;;;5014242;28;20615;-67
2022/01/29 06:03:04;;;;;;;6.10;2.22;;;21.90;55.60;;;;;;5033201;28;20040;-68
2022/01/29 06:05:31;;;;;;;7.82;2.45;;;21.90;55.90;;;;;;5032884;28;20029;-67
2022/01/29 06:07:56;;;;;;;10.80;2.63;;;21.90;55.70;;;;;;4982831;28;20038;-67
2022/01/29 06:10:23;;;;;;;7.00;2.63;;;21.90;56.00;;;;;;5014646;28;20029;-68
2022/01/29 06:13:03;;;;;;;13.13;2.97;;;21.90;55.90;;;;;;5032934;28;20059;-68
2022/01/29 06:15:32;;;;;;;9.00;2.67;;;21.90;55.90;;;;;;5014862;28;20040;-68
2022/01/29 06:17:58;;;;;;;9.73;2.67;;;21.90;55.90;;;;;;5032832;28;20030;-68
2022/01/29 06:20:25;;;;;;;7.47;2.72;;;21.80;56.00;;;;;;5014741;28;20022;-68
2022/01/29 06:22:51;;;;;;;9.95;2.78;;;21.90;56.00;;;;;;5015643;28;20040;-68
2022/01/29 06:25:18;;;;;;;9.48;3.03;;;21.80;55.90;;;;;;5033100;28;20017;-68
2022/01/29 06:27:44;;;;;;;6.50;2.63;;;21.90;56.10;;;;;;5033282;28;20036;-68
2022/01/29 06:30:10;;;;;;;9.10;2.58;;;21.90;56.20;;;;;;5033179;28;20512;-67
2022/01/29 06:32:36;;;;;;;9.45;2.60;;;21.80;56.00;;;;;;5032722;28;20116;-68
2022/01/29 06:35:02;;;;;;;7.28;2.80;;;21.80;56.10;;;;;;5014996;28;20558;-68
2022/01/29 06:37:28;;;;;;;8.75;2.95;;;21.80;55.90;;;;;;4998972;28;20417;-68
2022/01/29 06:39:54;;;;;;;10.80;3.08;;;21.90;56.10;;;;;;4998249;28;20059;-68
2022/01/29 06:42:20;;;;;;;9.55;2.70;;;21.80;55.90;;;;;;5014583;28;20080;-67
2022/01/29 06:44:45;;;;;;;7.43;2.95;;;21.80;55.80;;;;;;5014767;28;20114;-68
2022/01/29 06:47:11;;;;;;;7.97;2.92;;;21.80;56.00;;;;;;5032239;28;20321;-68
2022/01/29 06:49:37;;;;;;;8.70;3.13;;;21.80;56.00;;;;;;5014184;28;20030;-68
2022/01/29 06:52:03;;;;;;;8.23;2.63;;;21.80;55.90;;;;;;5014655;28;20037;-68
2022/01/29 06:54:28;;;;;;;7.07;3.00;;;21.80;56.00;;;;;;5014498;28;20043;-67
2022/01/29 06:56:55;;;;;;;6.25;2.85;;;21.80;55.90;;;;;;5014293;28;20034;-67
2022/01/29 06:59:20;;;;;;;6.07;2.50;;;21.80;55.90;;;;;;5031815;28;20498;-66
2022/01/29 07:01:46;;;;;;;7.85;2.75;;;21.80;56.00;;;;;;5031795;28;20033;-67
2022/01/29 07:04:12;;;;;;;6.68;2.50;;;21.90;56.20;;;;;;5031986;28;20035;-67
2022/01/29 07:06:37;;;;;;;8.00;2.78;;;21.80;56.00;;;;;;4998009;28;20482;-67
2022/01/29 07:09:04;;;;;;;6.97;2.75;;;21.90;56.00;;;;;;5032239;28;20025;-67
2022/01/29 07:11:30;;;;;;;7.82;3.03;;;21.90;56.00;;;;;;5013740;28;20113;-67
2022/01/29 07:14:03;;;;;;;5.35;2.53;;;21.90;56.10;;;;;;5031857;28;20136;-67
2022/01/29 07:16:31;;;;;;;8.18;3.00;;;21.90;56.10;;;;;;5031833;28;20057;-67
2022/01/29 07:18:57;;;;;;;7.97;3.15;;;21.90;55.90;;;;;;5031962;28;20029;-67
2022/01/29 07:21:23;;;;;;;6.78;3.17;;;21.90;56.00;;;;;;5013058;28;20687;-67
2022/01/29 07:23:48;;;;;;;6.85;2.92;;;21.80;56.00;;;;;;5014163;28;20026;-67
2022/01/29 07:26:14;;;;;;;6.65;2.88;;;21.80;55.90;;;;;;5031587;28;20030;-67
2022/01/29 07:28:40;;;;;;;7.10;2.70;;;21.80;55.90;;;;;;5013741;28;20026;-67
2022/01/29 07:31:06;;;;;;;7.25;2.90;;;21.80;56.00;;;;;;5031358;28;20033;-67
2022/01/29 07:33:32;;;;;;;7.32;2.65;;;21.80;56.00;;;;;;5031908;28;20379;-67
2022/01/29 07:35:58;;;;;;;5.35;2.80;;;21.80;56.70;;;;;;5031597;28;20226;-67
2022/01/29 07:38:24;;;;;;;8.45;2.83;;;21.80;56.10;;;;;;5031777;28;20022;-67
2022/01/29 07:40:50;;;;;;;5.63;2.90;;;21.80;56.20;;;;;;5013659;28;20381;-67
2022/01/29 07:43:16;;;;;;;5.78;2.40;;;21.80;56.00;;;;;;5031543;28;20105;-67
2022/01/29 07:45:42;;;;;;;6.35;2.83;;;21.80;55.90;;;;;;5031155;28;20118;-67
2022/01/29 07:48:08;;;;;;;6.82;2.47;;;21.80;56.00;;;;;;5031553;28;20022;-67
2022/01/29 07:50:34;;;;;;;8.43;2.85;;;21.80;56.00;;;;;;5031333;28;20037;-67
2022/01/29 07:53:00;;;;;;;7.47;2.60;;;21.80;56.10;;;;;;5031509;28;20030;-67
2022/01/29 07:55:26;;;;;;;7.47;2.60;;;21.80;56.20;;;;;;5013456;28;20056;-66
2022/01/29 07:57:52;;;;;;;5.65;2.53;;;21.80;56.00;;;;;;5058064;23;20081;-72
2022/01/29 08:00:18;;;;;;;7.55;2.70;;;21.80;55.90;;;;;;5048039;28;20075;-73
2022/01/29 08:02:44;;;;;;;11.55;2.42;;;21.80;56.30;;;;;;5050729;28;20108;-72
2022/01/29 08:05:10;;;;;;;6.20;2.55;;;21.80;56.30;;;;;;5051334;28;20104;-73
2022/01/29 08:07:38;;;;;;;7.65;3.03;;;21.80;56.20;;;;;;5051194;28;20389;-73
2022/01/29 08:10:08;;;;;;;7.05;2.90;;;21.80;56.20;;;;;;5050482;28;20029;-73
2022/01/29 08:12:34;;;;;;;7.15;2.53;;;21.80;56.30;;;;;;5051115;28;20112;-72
2022/01/29 08:15:01;;;;;;;9.85;3.60;;;21.80;56.30;;;;;;5051204;28;20558;-73
2022/01/29 08:17:27;;;;;;;12.90;2.80;;;21.80;56.20;;;;;;5032922;28;20035;-72
2022/01/29 08:19:53;;;;;;;9.65;2.75;;;21.80;56.10;;;;;;5032995;28;20120;-72
2022/01/29 08:22:18;;;;;;;10.82;2.90;;;21.80;56.00;;;;;;5051150;28;20025;-72
2022/01/29 08:24:44;;;;;;;9.57;3.28;;;21.80;56.10;;;;;;5050963;28;20473;-72
2022/01/29 08:27:10;;;;;;;5.80;2.75;;;21.80;56.20;;;;;;5049741;28;20466;-73
2022/01/29 08:29:37;;;;;;;6.38;2.88;;;21.80;56.20;;;;;;5049809;28;20021;-73
2022/01/29 08:32:04;;;;;;;6.47;2.65;;;21.80;56.30;;;;;;5051483;28;20033;-73
2022/01/29 08:34:30;;;;;;;9.68;2.92;;;21.80;56.20;;;;;;5054394;28;20025;-73
2022/01/29 08:37:02;;;;;;;9.38;2.70;;;21.80;56.30;;;;;;5054677;28;20040;-72
2022/01/29 08:39:28;;;;;;;8.30;2.95;;;21.80;56.00;;;;;;5048150;28;20404;-73
2022/01/29 08:41:58;;;;;;;8.60;2.95;;;21.80;56.50;;;;;;5053407;28;20037;-73
2022/01/29 08:44:24;;;;;;;6.72;2.97;;;21.80;56.20;;;;;;5054530;28;20029;-73
2022/01/29 08:46:50;;;;;;;5.75;2.75;;;21.80;56.20;;;;;;5054122;28;20075;-73
2022/01/29 08:49:16;;;;;;;5.82;2.80;;;21.80;56.20;;;;;;5054336;28;20059;-73
2022/01/29 08:51:41;;;;;;;7.80;3.35;;;21.80;56.60;;;;;;5053841;28;20501;-73
2022/01/29 08:54:07;;;;;;;7.40;3.35;;;21.80;56.10;;;;;;5054108;28;20025;-73
2022/01/29 08:56:33;;;;;;;5.95;2.42;;;21.80;56.40;;;;;;5054112;28;20566;-72
2022/01/29 08:58:59;;;;;;;6.22;2.97;;;21.80;56.20;;;;;;5054140;28;20086;-74
2022/01/29 09:01:24;;;;;;;5.95;2.90;;;21.80;55.90;;;;;;5052633;28;20477;-73
2022/01/29 09:03:50;;;;;;;10.43;3.20;;;21.70;56.20;;;;;;5053313;28;20390;-72
2022/01/29 09:06:16;;;;;;;6.30;2.83;;;21.70;56.10;;;;;;5052401;28;20493;-73
2022/01/29 09:08:46;;;;;;;6.20;2.80;;;21.80;56.00;;;;;;5054237;28;20485;-73
2022/01/29 09:11:14;;;;;;;5.55;2.78;;;21.70;56.40;;;;;;5052735;28;20029;-73
2022/01/29 09:13:40;;;;;;;10.52;3.45;;;21.80;56.30;;;;;;5050904;28;20100;-73
2022/01/29 09:16:06;;;;;;;6.90;2.97;;;21.70;55.90;;;;;;5051341;28;20461;-73
2022/01/29 09:18:32;;;;;;;5.80;2.90;;;21.70;56.10;;;;;;5053987;28;20180;-73
2022/01/29 09:20:58;;;;;;;7.00;2.65;;;21.70;56.10;;;;;;5052381;28;20397;-72
2022/01/29 09:23:23;;;;;;;6.85;3.00;;;21.70;56.30;;;;;;5053953;28;20025;-73
2022/01/29 09:25:49;;;;;;;7.55;3.40;;;21.70;56.10;;;;;;5052859;28;20605;-73
2022/01/29 09:28:15;;;;;;;8.25;3.17;;;21.70;55.90;;;;;;5054043;28;20025;-73
2022/01/29 09:30:43;;;;;;;8.63;3.28;;;21.70;56.10;;;;;;5053548;28;20109;-72
2022/01/29 09:33:10;;;;;;;6.50;2.92;;;21.70;55.80;;;;;;5052728;28;20052;-73
2022/01/29 09:35:38;;;;;;;4.95;2.95;;;21.70;55.90;;;;;;5053570;28;20029;-72
2022/01/29 09:38:05;;;;;;;6.35;2.75;;;21.70;56.20;;;;;;5053436;28;20029;-72
2022/01/29 09:40:31;;;;;;;7.65;2.92;;;21.70;56.20;;;;;;5022481;28;20037;-72
2022/01/29 09:42:58;;;;;;;6.35;2.95;;;21.70;56.10;;;;;;5033617;28;20478;-72
2022/01/29 09:45:26;;;;;;;10.77;3.15;;;21.70;56.10;;;;;;5031770;28;20026;-72
2022/01/29 09:48:01;;;;;;;7.07;3.10;;;21.70;56.10;;;;;;5015829;28;20041;-72
2022/01/29 09:50:30;;;;;;;5.28;2.55;;;21.70;56.00;;;;;;5032073;28;20033;-72
2022/01/29 09:52:56;;;;;;;7.30;2.83;;;21.80;56.00;;;;;;5033461;28;20029;-73
2022/01/29 09:55:22;;;;;;;6.95;3.22;;;21.80;56.20;;;;;;5050884;28;20452;-73
2022/01/29 09:57:48;;;;;;;8.13;2.92;;;21.70;56.00;;;;;;5052956;28;20068;-73
2022/01/29 10:00:14;;;;;;;7.80;2.90;;;21.80;56.10;;;;;;5052863;28;20065;-73
2022/01/29 10:02:40;;;;;;;7.18;2.90;;;21.70;56.10;;;;;;5053258;28;20029;-73
2022/01/29 10:05:08;;;;;;;4.95;2.55;;;21.70;56.00;;;;;;5053119;28;20028;-72
2022/01/29 10:07:33;;;;;;;7.18;3.13;;;21.70;56.30;;;;;;5051964;28;20397;-72
2022/01/29 10:10:03;;;;;;;8.75;3.05;;;21.70;56.30;;;;;;5052825;28;20108;-72
2022/01/29 10:12:31;;;;;;;6.38;2.88;;;21.70;56.30;;;;;;5052518;28;20021;-73
2022/01/29 10:15:08;;;;;;;4.90;2.70;;;21.70;56.30;;;;;;5052952;28;20105;-72
2022/01/29 10:17:42;;;;;;;7.70;3.17;;;21.70;56.10;;;;;;5052772;28;20055;-72
2022/01/29 10:20:28;;;;;;;5.22;2.90;;;21.70;56.30;;;;;;5052580;28;20032;-72
2022/01/29 10:23:00;;;;;;;10.02;3.00;;;21.70;56.30;;;;;;5051802;28;20493;-72
2022/01/29 10:25:31;;;;;;;6.72;3.03;;;21.70;56.20;;;;;;5052759;28;20136;-72
2022/01/29 10:28:16;;;;;;;7.32;3.03;;;21.70;56.20;;;;;;5052615;28;20448;-72
2022/01/29 10:30:51;;;;;;;7.35;3.08;;;21.70;56.40;;;;;;5031264;28;20046;-72
2022/01/29 10:33:19;;;;;;;6.13;3.17;;;21.70;56.30;;;;;;5032680;28;20544;-72
2022/01/29 10:35:54;;;;;;;8.13;3.00;;;21.70;56.30;;;;;;5032615;28;20036;-72
2022/01/29 10:38:29;;;;;;;9.57;2.90;;;21.70;56.10;;;;;;5032539;28;20044;-73
2022/01/29 10:41:24;;;;;;;6.07;2.75;;;21.70;56.20;;;;;;5031113;28;20103;-73
2022/01/29 10:44:24;;;;;;;7.07;3.13;;;21.70;56.00;;;;;;5032604;28;20459;-73
2022/01/29 10:46:55;;;;;;;5.75;2.80;;;21.70;55.80;;;;;;5052044;28;20068;-73
2022/01/29 10:49:28;;;;;;;6.20;3.03;;;21.70;55.90;;;;;;5052150;28;20024;-72
2022/01/29 10:52:27;;;;;;;6.45;3.00;;;21.70;55.90;;;;;;5052343;28;20033;-72
2022/01/29 10:55:00;;;;;;;6.10;2.95;;;21.70;56.10;;;;;;5038505;28;20509;-72
2022/01/29 10:57:49;;;;;;;7.03;2.88;;;21.70;55.80;;;;;;5052219;28;20029;-73
2022/01/29 11:00:21;;;;;;;8.93;3.22;;;21.70;56.00;;;;;;5051569;28;20071;-72
2022/01/29 11:02:48;;;;;;;4.90;2.60;;;21.70;56.20;;;;;;5048239;28;20029;-72
2022/01/29 11:05:15;;;;;;;7.60;3.03;;;21.70;55.80;;;;;;5065862;28;20104;-72
2022/01/29 11:07:45;;;;;;;7.75;2.92;;;21.70;55.70;;;;;;5052468;28;20029;-72
2022/01/29 11:10:11;;;;;;;8.88;3.33;;;21.80;55.70;;;;;;5050293;28;20380;-72
2022/01/29 11:12:43;;;;;;;8.77;3.00;;;21.70;56.10;;;;;;5051227;28;20108;-73
2022/01/29 11:15:09;;;;;;;8.25;2.80;;;21.70;56.00;;;;;;5051617;28;20036;-72
2022/01/29 11:17:35;;;;;;;6.65;3.15;;;21.70;56.00;;;;;;5046770;28;20508;-72
2022/01/29 11:20:02;;;;;;;5.93;2.90;;;21.70;55.70;;;;;;5051029;28;20033;-72
2022/01/29 11:22:35;;;;;;;8.18;3.45;;;21.70;55.90;;;;;;5051413;28;20072;-73
2022/01/29 11:25:06;;;;;;;7.93;2.80;;;21.70;55.50;;;;;;5049141;28;20103;-73
2022/01/29 11:27:37;;;;;;;15.98;3.55;;;21.70;56.00;;;;;;5051393;28;20389;-73
2022/01/29 11:30:09;;;;;;;5.07;2.78;;;21.70;56.10;;;;;;5049053;28;20025;-72
2022/01/29 11:32:39;;;;;;;6.47;3.10;;;21.70;56.20;;;;;;5047170;28;20060;-73
2022/01/29 11:35:06;;;;;;;;;;;21.70;56.30;;;;;;5052443;28;20381;-72
2022/01/29 11:37:43;;;;;;;8.60;3.25;;;21.70;56.50;;;;;;5061705;28;19932;-73
2022/01/29 11:40:17;;;;;;;6.68;2.97;;;21.70;56.40;;;;;;5034138;28;20037;-72
2022/01/29 11:43:14;;;;;;;7.78;2.85;;;21.70;56.50;;;;;;5058531;28;20025;-73
2022/01/29 11:45:57;;;;;;;9.25;2.88;;;21.70;56.10;;;;;;5063055;28;20024;-73
2022/01/29 11:48:26;;;;;;;6.47;2.88;;;21.70;56.40;;;;;;5065641;28;20021;-73
2022/01/29 11:51:02;;;;;;;12.70;3.20;;;21.70;56.30;;;;;;5051143;28;20039;-74
2022/01/29 11:53:55;;;;;;;11.43;3.53;;;21.70;56.10;;;;;;5051462;28;20025;-73
2022/01/29 11:56:44;;;;;;;13.10;3.40;;;21.70;56.50;;;;;;5070228;28;20408;-73
2022/01/29 11:59:28;;;;;;;9.18;3.70;;;21.80;56.60;;;;;;5071417;28;20036;-74
2022/01/29 12:02:20;;;;;;;10.63;4.50;;;21.60;53.70;;;;;;5037183;28;20036;-74
2022/01/29 12:05:14;;;;;;;10.55;4.57;;;21.40;50.70;;;;;;5049868;28;20036;-75
2022/01/29 12:08:13;;;;;;;16.65;5.28;;;21.30;50.30;;;;;;5050716;28;20013;-75
2022/01/29 12:10:42;;;;;;;16.70;5.68;;;21.40;52.00;;;;;;5052047;28;20064;-72
2022/01/29 12:13:14;;;;;;;21.00;5.22;;;21.50;55.40;;;;;;5053812;28;20025;-72
2022/01/29 12:15:40;;;;;;;16.50;5.45;;;21.60;56.70;;;;;;5037566;28;20075;-73
2022/01/29 12:18:25;;;;;;;20.80;5.60;;;21.70;57.40;;;;;;5054236;28;20021;-72
2022/01/29 12:20:51;;;;;;;22.73;5.70;;;21.80;57.90;;;;;;5034612;28;20478;-72
2022/01/29 12:23:16;;;;;;;20.15;5.28;;;21.90;57.70;;;;;;5033545;28;20033;-72
2022/01/29 12:25:50;;;;;;;25.48;5.05;;;22.00;57.50;;;;;;5033670;28;20196;-72
2022/01/29 12:28:16;;;;;;;14.77;4.68;;;22.00;57.50;;;;;;5035036;28;20021;-72
2022/01/29 12:30:43;;;;;;;8.65;4.72;;;22.00;57.60;;;;;;5034696;28;20371;-72
2022/01/29 12:33:12;;;;;;;17.15;4.63;;;22.10;58.70;;;;;;5043784;28;20021;-72
2022/01/29 12:35:37;;;;;;;17.42;4.30;;;22.20;58.20;;;;;;5054632;28;20035;-72
2022/01/29 12:38:11;;;;;;;13.80;4.18;;;22.10;58.50;;;;;;5054891;28;20033;-73
2022/01/29 12:41:03;;;;;;;10.95;3.85;;;22.20;57.80;;;;;;5054251;28;20029;-72
2022/01/29 12:43:40;;;;;;;13.15;4.22;;;22.20;57.80;;;;;;5053485;28;20029;-73
2022/01/29 12:46:18;;;;;;;13.68;3.72;;;22.20;58.10;;;;;;5052690;28;20110;-72
2022/01/29 12:49:00;;;;;;;8.68;3.65;;;22.20;57.30;;;;;;5052967;28;20024;-73
2022/01/29 12:51:26;;;;;;;15.75;3.63;;;22.20;58.00;;;;;;5054344;28;20385;-72
2022/01/29 12:54:00;;;;;;;9.27;3.78;;;22.20;56.80;;;;;;5053290;28;20029;-73
2022/01/29 12:56:31;;;;;;;11.40;3.70;;;22.10;56.80;;;;;;5053748;28;20111;-72
2022/01/29 12:58:58;;;;;;;15.57;3.55;;;22.10;56.40;;;;;;5051949;28;20033;-72
2022/01/29 13:01:25;;;;;;;15.50;3.88;;;22.10;56.10;;;;;;5034871;28;20056;-72